Time;durP1;ratioP1;P1;durP2;ratioP2;P2;SDS_P1;SDS_P2;PMS_P1;PMS_P2;Temp;Humidity;BMP_temperature;BMP_pressure;BME280_temperature;BME280_humidity;BME280_pressure;Samples;Min_cycle;Max_cycle;Signal;HPM_P1;HPM_P2
2022/10/20 00:01:13;;;;;;;9.43;5.27;;;7.70;99.90;;;;;;5046451;28;20510;-69
2022/10/20 00:03:39;;;;;;;15.20;5.80;;;7.80;99.90;;;;;;5045681;28;20048;-70
2022/10/20 00:06:07;;;;;;;12.53;5.73;;;7.80;99.90;;;;;;5046567;28;20049;-69
2022/10/20 00:08:33;;;;;;;16.70;5.83;;;7.90;99.90;;;;;;5034967;28;20037;-69
2022/10/20 00:10:58;;;;;;;13.40;5.93;;;7.90;99.90;;;;;;5048078;28;20052;-70
2022/10/20 00:13:24;;;;;;;11.83;5.57;;;7.80;99.90;;;;;;5047432;28;20489;-69
2022/10/20 00:15:51;;;;;;;11.80;5.63;;;7.80;99.90;;;;;;5048298;28;20762;-69
2022/10/20 00:18:18;;;;;;;13.13;5.53;;;7.70;99.90;;;;;;5031189;28;20069;-70
2022/10/20 00:20:43;;;;;;;11.97;5.40;;;7.80;99.90;;;;;;5048050;28;20049;-70
2022/10/20 00:23:09;;;;;;;16.50;5.57;;;7.70;99.90;;;;;;5047339;28;20103;-69
2022/10/20 00:25:35;;;;;;;13.33;5.93;;;7.70;99.90;;;;;;5046414;28;20116;-69
2022/10/20 00:28:00;;;;;;;11.53;5.60;;;7.70;99.90;;;;;;5029773;28;20037;-69
2022/10/20 00:30:26;;;;;;;12.07;5.53;;;7.60;99.90;;;;;;5046332;28;20441;-69
2022/10/20 00:32:52;;;;;;;10.73;6.20;;;7.50;99.90;;;;;;5045498;28;20056;-69
2022/10/20 00:35:18;;;;;;;11.53;5.97;;;7.40;99.90;;;;;;5047639;28;20045;-70
2022/10/20 00:37:43;;;;;;;14.03;5.77;;;7.30;99.90;;;;;;5030423;28;20055;-70
2022/10/20 00:40:10;;;;;;;12.03;6.00;;;7.20;99.90;;;;;;5029558;28;20048;-69
2022/10/20 00:42:35;;;;;;;11.93;6.40;;;7.10;99.90;;;;;;5045045;28;20049;-70
2022/10/20 00:45:01;;;;;;;13.70;6.07;;;7.10;99.90;;;;;;5045997;28;20091;-69
2022/10/20 00:47:38;;;;;;;12.10;5.90;;;7.00;99.90;;;;;;5013035;28;20430;-70
2022/10/20 00:50:17;;;;;;;12.87;6.70;;;7.00;99.90;;;;;;5045500;28;20500;-69
2022/10/20 00:52:45;;;;;;;14.97;6.33;;;7.00;99.90;;;;;;5044977;28;20407;-69
2022/10/20 00:55:15;;;;;;;14.33;6.90;;;7.00;99.90;;;;;;5047565;28;20538;-69
2022/10/20 00:57:45;;;;;;;11.70;6.77;;;6.90;99.90;;;;;;5029068;28;20041;-69
2022/10/20 01:00:11;;;;;;;14.30;6.80;;;6.90;99.90;;;;;;5047444;28;20119;-69
2022/10/20 01:02:37;;;;;;;13.47;6.30;;;6.90;99.90;;;;;;5044727;28;20045;-69
2022/10/20 01:05:03;;;;;;;11.67;6.27;;;6.80;99.90;;;;;;5040812;28;20687;-69
2022/10/20 01:07:29;;;;;;;12.37;6.20;;;6.80;99.90;;;;;;5029304;28;20446;-70
2022/10/20 01:09:55;;;;;;;12.53;6.03;;;6.80;99.90;;;;;;5045561;28;20045;-70
2022/10/20 01:12:30;;;;;;;12.33;6.70;;;6.80;99.90;;;;;;5044667;28;20044;-70
2022/10/20 01:15:03;;;;;;;12.87;6.70;;;6.70;99.90;;;;;;5046825;28;20053;-69
2022/10/20 01:18:16;;;;;;;12.67;7.10;;;6.70;99.90;;;;;;5030660;28;20063;-70
2022/10/20 01:20:52;;;;;;;13.30;6.20;;;6.70;99.90;;;;;;4984699;28;20104;-69
2022/10/20 01:23:29;;;;;;;15.30;6.90;;;6.60;99.90;;;;;;5027987;28;20067;-69
2022/10/20 01:26:17;;;;;;;12.07;6.30;;;6.70;99.90;;;;;;5046632;28;20329;-69
2022/10/20 01:28:59;;;;;;;14.37;6.80;;;6.70;99.90;;;;;;5039907;28;20056;-70
2022/10/20 01:31:39;;;;;;;13.80;7.33;;;6.70;99.90;;;;;;5046890;28;20044;-69
2022/10/20 01:34:23;;;;;;;11.53;6.47;;;6.70;99.90;;;;;;5045958;28;20056;-69
2022/10/20 01:37:04;;;;;;;12.30;5.90;;;6.80;99.90;;;;;;5029945;28;20130;-70
2022/10/20 01:39:39;;;;;;;11.65;6.70;;;6.60;99.90;;;;;;5044946;28;20041;-69
2022/10/20 01:42:13;;;;;;;14.23;6.17;;;6.60;99.90;;;;;;5044137;28;20044;-69
2022/10/20 01:44:40;;;;;;;15.73;6.60;;;6.70;99.90;;;;;;5028098;28;20068;-69
2022/10/20 01:47:10;;;;;;;15.07;6.60;;;6.60;99.90;;;;;;5028353;28;20504;-69
2022/10/20 01:49:36;;;;;;;13.97;6.13;;;6.60;99.90;;;;;;5028239;28;20485;-70
2022/10/20 01:52:02;;;;;;;9.80;5.83;;;6.70;99.90;;;;;;5046656;28;20071;-68
2022/10/20 01:54:29;;;;;;;12.43;5.60;;;6.70;99.90;;;;;;5044192;28;20414;-69
2022/10/20 01:57:14;;;;;;;15.83;6.10;;;6.70;99.90;;;;;;5029377;28;20408;-69
2022/10/20 02:00:08;;;;;;;14.40;6.33;;;6.70;99.90;;;;;;5043724;28;20033;-69
2022/10/20 02:03:11;;;;;;;15.73;6.47;;;6.70;99.90;;;;;;5043648;28;20056;-69
2022/10/20 02:05:47;;;;;;;13.07;6.47;;;6.60;99.90;;;;;;5027196;28;20083;-69
2022/10/20 02:08:37;;;;;;;13.27;6.00;;;6.60;99.90;;;;;;5011493;28;20044;-69
2022/10/20 02:11:05;;;;;;;14.40;6.83;;;6.60;99.90;;;;;;5044307;28;20049;-69
2022/10/20 02:13:36;;;;;;;9.80;6.50;;;6.60;99.90;;;;;;5045305;28;20044;-69
2022/10/20 02:16:08;;;;;;;10.57;6.40;;;6.60;99.90;;;;;;5043235;28;20119;-69
2022/10/20 02:18:39;;;;;;;10.10;5.90;;;6.60;99.90;;;;;;5035726;28;20124;-69
2022/10/20 02:21:06;;;;;;;13.13;6.55;;;6.70;99.90;;;;;;5045749;28;20048;-69
2022/10/20 02:23:36;;;;;;;11.43;6.47;;;6.60;99.90;;;;;;5045197;28;20048;-69
2022/10/20 02:26:06;;;;;;;11.37;6.50;;;6.60;99.90;;;;;;5043971;28;20049;-68
2022/10/20 02:28:35;;;;;;;14.80;7.10;;;6.60;99.90;;;;;;5027302;28;20052;-69
2022/10/20 02:31:02;;;;;;;9.13;6.17;;;6.60;99.90;;;;;;5044032;28;20072;-69
2022/10/20 02:33:29;;;;;;;13.83;6.87;;;6.60;99.90;;;;;;5043257;28;20051;-69
2022/10/20 02:35:57;;;;;;;12.00;6.83;;;6.60;99.90;;;;;;5045819;28;20048;-69
2022/10/20 02:38:23;;;;;;;14.53;6.70;;;6.60;99.90;;;;;;5027914;28;20135;-69
2022/10/20 02:40:49;;;;;;;13.20;6.90;;;6.60;99.90;;;;;;5044139;28;20080;-70
2022/10/20 02:43:14;;;;;;;12.83;6.53;;;6.70;99.90;;;;;;5044125;28;20049;-70
2022/10/20 02:45:40;;;;;;;13.50;6.90;;;6.60;99.90;;;;;;5044077;28;20052;-69
2022/10/20 02:48:08;;;;;;;13.57;6.93;;;6.60;99.90;;;;;;5009756;28;20502;-69
2022/10/20 02:50:35;;;;;;;14.37;7.27;;;6.60;99.90;;;;;;5043961;28;20045;-69
2022/10/20 02:53:01;;;;;;;12.00;6.53;;;6.60;99.90;;;;;;5042765;28;20041;-68
2022/10/20 02:55:26;;;;;;;13.47;6.87;;;6.60;99.90;;;;;;5042972;28;20049;-69
2022/10/20 02:57:52;;;;;;;15.00;6.83;;;6.70;99.90;;;;;;5010423;28;20115;-69
2022/10/20 03:00:19;;;;;;;14.30;7.37;;;6.60;99.90;;;;;;5027076;28;20036;-69
2022/10/20 03:02:46;;;;;;;12.93;6.50;;;6.60;99.90;;;;;;5009111;28;20045;-69
2022/10/20 03:05:12;;;;;;;12.53;7.00;;;6.60;99.90;;;;;;5043553;28;20758;-69
2022/10/20 03:07:38;;;;;;;12.83;7.37;;;6.50;99.90;;;;;;5026919;28;20053;-69
2022/10/20 03:10:04;;;;;;;12.80;7.43;;;6.50;99.90;;;;;;5043634;28;20057;-68
2022/10/20 03:12:30;;;;;;;12.20;7.23;;;6.50;99.90;;;;;;5043935;28;20040;-69
2022/10/20 03:14:55;;;;;;;11.03;7.10;;;6.50;99.90;;;;;;5044407;28;20094;-69
2022/10/20 03:17:21;;;;;;;16.43;7.97;;;6.50;99.90;;;;;;5027021;28;20436;-69
2022/10/20 03:19:47;;;;;;;15.00;8.10;;;6.50;99.90;;;;;;5044645;28;20141;-69
2022/10/20 03:22:12;;;;;;;17.43;7.73;;;6.50;99.90;;;;;;5042313;28;20053;-69
2022/10/20 03:24:38;;;;;;;15.77;8.20;;;6.50;99.90;;;;;;5043806;28;20041;-69
2022/10/20 03:27:04;;;;;;;13.17;8.17;;;6.50;99.90;;;;;;5026560;28;20091;-70
2022/10/20 03:29:29;;;;;;;15.23;8.50;;;6.50;99.90;;;;;;5044883;28;20087;-70
2022/10/20 03:31:55;;;;;;;14.50;8.87;;;6.50;99.90;;;;;;5043322;28;20040;-69
2022/10/20 03:34:21;;;;;;;18.27;8.47;;;6.40;99.90;;;;;;5042166;28;20037;-69
2022/10/20 03:36:46;;;;;;;15.37;8.87;;;6.40;99.90;;;;;;5027695;28;20056;-69
2022/10/20 03:39:12;;;;;;;13.53;8.83;;;6.40;99.90;;;;;;5042824;28;20128;-69
2022/10/20 03:41:37;;;;;;;14.23;8.50;;;6.40;99.90;;;;;;5043055;28;20106;-69
2022/10/20 03:44:03;;;;;;;15.83;9.03;;;6.40;99.90;;;;;;5041848;28;20061;-69
2022/10/20 03:46:29;;;;;;;13.93;9.07;;;6.40;99.90;;;;;;5014023;28;20041;-69
2022/10/20 03:48:55;;;;;;;13.73;8.70;;;6.40;99.90;;;;;;5037400;28;20082;-69
2022/10/20 03:51:20;;;;;;;14.93;9.27;;;6.40;99.90;;;;;;5043018;28;20102;-69
2022/10/20 03:53:46;;;;;;;13.00;8.40;;;6.40;99.90;;;;;;5042018;28;20056;-69
2022/10/20 03:56:16;;;;;;;12.10;9.33;;;6.40;99.90;;;;;;5035702;28;20041;-69
2022/10/20 03:58:42;;;;;;;15.43;9.37;;;6.40;99.90;;;;;;5037269;28;20377;-69
2022/10/20 04:01:14;;;;;;;18.87;9.37;;;6.60;99.90;;;;;;5023771;28;20060;-69
2022/10/20 04:03:40;;;;;;;13.13;9.57;;;6.40;99.90;;;;;;5025974;28;20095;-69
2022/10/20 04:06:06;;;;;;;20.37;8.83;;;6.40;99.90;;;;;;5041370;28;20045;-69
2022/10/20 04:08:32;;;;;;;21.80;10.60;;;6.30;99.90;;;;;;5031090;28;20045;-69
2022/10/20 04:10:58;;;;;;;13.53;9.93;;;6.40;99.90;;;;;;5042693;28;20059;-69
2022/10/20 04:13:23;;;;;;;14.40;9.47;;;6.40;99.90;;;;;;5043019;28;20083;-69
2022/10/20 04:15:49;;;;;;;15.20;9.70;;;6.30;99.90;;;;;;5044135;28;20045;-69
2022/10/20 04:18:14;;;;;;;17.93;10.33;;;6.30;99.90;;;;;;5026107;28;20053;-69
2022/10/20 04:20:40;;;;;;;16.53;10.13;;;6.30;99.90;;;;;;5042860;28;20049;-70
2022/10/20 04:23:06;;;;;;;17.27;10.30;;;6.30;99.90;;;;;;5008605;28;20102;-69
2022/10/20 04:25:31;;;;;;;16.40;10.37;;;6.30;99.90;;;;;;5042931;28;20128;-69
2022/10/20 04:27:58;;;;;;;17.20;10.37;;;6.30;99.90;;;;;;5013160;28;20447;-69
2022/10/20 04:30:24;;;;;;;16.40;10.47;;;6.20;99.90;;;;;;5047409;28;20044;-70
2022/10/20 04:32:50;;;;;;;19.73;10.83;;;6.20;99.90;;;;;;5046941;28;20151;-69
2022/10/20 04:35:16;;;;;;;17.80;10.23;;;6.10;99.90;;;;;;5047615;28;20076;-70
2022/10/20 04:37:42;;;;;;;16.80;11.23;;;6.20;99.90;;;;;;5031718;28;20048;-69
2022/10/20 04:40:08;;;;;;;16.97;10.97;;;6.20;99.90;;;;;;5046247;28;20048;-69
2022/10/20 04:42:34;;;;;;;16.77;11.00;;;6.20;99.90;;;;;;5046391;28;20099;-70
2022/10/20 04:44:59;;;;;;;17.20;11.33;;;6.10;99.90;;;;;;5045754;28;20069;-69
2022/10/20 04:47:25;;;;;;;18.70;11.70;;;6.20;99.90;;;;;;5029521;28;20049;-69
2022/10/20 04:49:50;;;;;;;17.30;11.20;;;6.30;99.90;;;;;;5045983;28;20057;-69
2022/10/20 04:52:16;;;;;;;21.50;11.83;;;6.20;99.90;;;;;;5047115;28;20047;-69
2022/10/20 04:54:42;;;;;;;18.57;12.30;;;6.20;99.90;;;;;;5047570;28;20075;-69
2022/10/20 04:57:09;;;;;;;17.90;11.50;;;6.10;99.90;;;;;;5013019;28;20123;-69
2022/10/20 04:59:35;;;;;;;20.90;12.47;;;6.10;99.90;;;;;;5045650;28;20057;-69
2022/10/20 05:02:01;;;;;;;18.03;11.77;;;6.10;99.90;;;;;;5045971;28;20063;-69
2022/10/20 05:04:26;;;;;;;19.73;12.33;;;6.10;99.90;;;;;;5046379;28;20609;-69
2022/10/20 05:06:52;;;;;;;21.27;12.23;;;6.10;99.90;;;;;;5031458;28;20227;-69
2022/10/20 05:09:17;;;;;;;17.67;12.80;;;6.10;99.90;;;;;;5044679;28;20510;-69
2022/10/20 05:11:43;;;;;;;21.97;13.13;;;6.00;99.90;;;;;;5045686;28;20488;-69
2022/10/20 05:14:09;;;;;;;16.57;12.00;;;6.10;99.90;;;;;;5028091;28;20072;-69
2022/10/20 05:16:34;;;;;;;18.37;12.13;;;6.10;99.90;;;;;;5032761;28;20048;-69
2022/10/20 05:19:00;;;;;;;19.03;12.10;;;6.10;99.90;;;;;;5026278;28;20053;-69
2022/10/20 05:21:29;;;;;;;20.63;12.90;;;6.10;99.90;;;;;;5045468;28;20123;-69
2022/10/20 05:24:00;;;;;;;24.03;13.37;;;6.10;99.90;;;;;;5044740;28;20404;-69
2022/10/20 05:26:28;;;;;;;20.50;13.02;;;6.00;99.90;;;;;;5034576;28;20045;-70
2022/10/20 05:28:54;;;;;;;19.97;13.53;;;6.00;99.90;;;;;;5039485;28;20114;-69
2022/10/20 05:31:22;;;;;;;18.27;13.47;;;6.00;99.90;;;;;;5026209;28;20122;-69
2022/10/20 05:33:50;;;;;;;21.87;13.23;;;6.00;99.90;;;;;;5030179;28;20045;-69
2022/10/20 05:36:18;;;;;;;19.57;13.23;;;6.00;99.90;;;;;;5025845;28;20041;-70
2022/10/20 05:38:45;;;;;;;22.57;14.03;;;6.10;99.90;;;;;;5033435;28;20056;-70
2022/10/20 05:41:13;;;;;;;20.10;14.07;;;6.00;99.90;;;;;;5041946;28;20053;-69
2022/10/20 05:43:39;;;;;;;24.50;14.77;;;6.00;99.90;;;;;;5040675;28;20315;-69
2022/10/20 05:46:06;;;;;;;20.47;14.13;;;6.00;99.90;;;;;;5042071;28;20675;-69
2022/10/20 05:48:33;;;;;;;23.60;15.07;;;6.00;99.90;;;;;;5029961;28;20170;-69
2022/10/20 05:51:14;;;;;;;21.23;14.23;;;6.00;99.90;;;;;;5042228;28;20048;-69
2022/10/20 05:53:40;;;;;;;21.25;14.73;;;6.00;99.90;;;;;;5042152;28;20492;-69
2022/10/20 05:56:07;;;;;;;22.37;14.60;;;5.90;99.90;;;;;;5043243;28;20048;-69
2022/10/20 05:58:33;;;;;;;22.10;14.03;;;6.00;99.90;;;;;;5031972;28;20045;-69
2022/10/20 06:01:15;;;;;;;25.43;15.07;;;6.00;99.90;;;;;;5041223;28;20047;-69
2022/10/20 06:03:42;;;;;;;25.73;15.13;;;6.00;99.90;;;;;;5039479;28;20060;-69
2022/10/20 06:06:07;;;;;;;19.37;14.20;;;6.00;99.90;;;;;;5037707;28;20088;-69
2022/10/20 06:08:33;;;;;;;24.17;14.80;;;6.00;99.90;;;;;;5016284;28;20053;-70
2022/10/20 06:11:08;;;;;;;21.43;14.60;;;6.00;99.90;;;;;;5042809;28;20048;-69
2022/10/20 06:13:34;;;;;;;21.10;15.07;;;6.00;99.90;;;;;;5041863;28;20083;-69
2022/10/20 06:16:05;;;;;;;21.30;15.30;;;6.00;99.90;;;;;;5042894;28;20633;-69
2022/10/20 06:18:32;;;;;;;22.98;15.43;;;6.00;99.90;;;;;;5026477;28;20504;-69
2022/10/20 06:21:02;;;;;;;27.57;15.77;;;6.00;99.90;;;;;;5042874;28;20598;-69
2022/10/20 06:23:28;;;;;;;22.17;14.67;;;6.00;99.90;;;;;;5024776;28;20640;-69
2022/10/20 06:25:53;;;;;;;23.50;15.00;;;6.00;99.90;;;;;;5042621;28;20128;-69
2022/10/20 06:28:19;;;;;;;24.93;15.20;;;6.00;99.90;;;;;;5025657;28;20041;-69
2022/10/20 06:30:45;;;;;;;23.07;16.10;;;6.20;99.90;;;;;;5042600;28;20041;-69
2022/10/20 06:33:13;;;;;;;26.70;14.90;;;6.10;99.90;;;;;;5041259;28;20045;-70
2022/10/20 06:35:39;;;;;;;21.30;15.33;;;6.10;99.90;;;;;;5042224;28;20048;-69
2022/10/20 06:38:05;;;;;;;26.83;15.63;;;6.10;99.90;;;;;;5026491;28;20044;-69
2022/10/20 06:40:30;;;;;;;24.03;16.40;;;6.20;99.90;;;;;;5041990;28;20149;-69
2022/10/20 06:42:56;;;;;;;24.87;15.73;;;6.20;99.90;;;;;;5042663;28;20285;-69
2022/10/20 06:45:22;;;;;;;22.70;15.33;;;6.20;99.90;;;;;;5041684;28;20140;-70
2022/10/20 06:47:47;;;;;;;23.43;15.27;;;6.20;99.90;;;;;;5025558;28;20811;-69
2022/10/20 06:50:13;;;;;;;21.63;15.80;;;6.30;99.90;;;;;;5041779;28;20045;-69
2022/10/20 06:52:38;;;;;;;21.83;15.27;;;6.20;99.90;;;;;;5026241;28;20393;-69
2022/10/20 06:55:04;;;;;;;24.13;15.80;;;6.30;99.90;;;;;;5039286;28;20049;-69
2022/10/20 06:57:31;;;;;;;23.80;15.43;;;6.30;99.90;;;;;;5027113;28;20045;-70
2022/10/20 06:59:56;;;;;;;22.63;15.80;;;6.30;99.90;;;;;;5043053;28;20060;-69
2022/10/20 07:02:22;;;;;;;26.07;15.83;;;6.40;99.90;;;;;;5035780;28;20498;-70
2022/10/20 07:04:51;;;;;;;23.93;15.40;;;6.40;99.90;;;;;;5022174;28;20053;-70
2022/10/20 07:07:16;;;;;;;22.80;16.07;;;6.40;99.90;;;;;;5007616;28;20064;-70
2022/10/20 07:09:42;;;;;;;25.17;15.43;;;6.40;99.90;;;;;;5022856;28;20052;-69
2022/10/20 07:12:08;;;;;;;24.27;16.03;;;6.50;99.90;;;;;;5021192;28;20049;-69
2022/10/20 07:14:36;;;;;;;23.57;16.03;;;6.50;99.90;;;;;;5023682;28;20041;-69
2022/10/20 07:17:05;;;;;;;27.27;15.80;;;6.60;99.90;;;;;;5007548;28;21204;-69
2022/10/20 07:19:31;;;;;;;23.60;15.43;;;6.60;99.90;;;;;;5018660;28;20048;-69
2022/10/20 07:21:56;;;;;;;21.43;15.10;;;6.60;99.90;;;;;;5005017;28;20060;-69
2022/10/20 07:24:22;;;;;;;22.03;15.30;;;6.60;99.90;;;;;;5021466;28;20053;-69
2022/10/20 07:26:48;;;;;;;27.10;16.40;;;6.70;99.90;;;;;;4988788;28;20049;-70
2022/10/20 07:29:14;;;;;;;22.43;16.00;;;6.70;99.90;;;;;;5003659;28;20651;-69
2022/10/20 07:31:42;;;;;;;22.63;16.03;;;6.60;99.90;;;;;;5023230;28;20155;-70
2022/10/20 07:34:10;;;;;;;23.33;16.10;;;6.70;99.90;;;;;;5021571;28;20081;-70
2022/10/20 07:36:36;;;;;;;24.47;15.90;;;6.70;99.90;;;;;;5010237;28;20049;-70
2022/10/20 07:39:04;;;;;;;25.33;15.97;;;6.70;99.90;;;;;;5019583;28;20131;-69
2022/10/20 07:41:31;;;;;;;24.13;15.50;;;6.70;99.90;;;;;;5022620;28;20055;-70
2022/10/20 07:43:57;;;;;;;23.13;15.47;;;6.80;99.90;;;;;;5021012;28;20069;-70
2022/10/20 07:46:23;;;;;;;20.77;15.27;;;6.90;99.90;;;;;;5009393;28;20048;-70
2022/10/20 07:48:49;;;;;;;20.53;16.07;;;6.90;99.90;;;;;;5019136;28;20084;-69
2022/10/20 07:51:28;;;;;;;23.60;16.03;;;6.80;99.90;;;;;;5022541;28;20526;-69
2022/10/20 07:54:03;;;;;;;25.77;16.10;;;6.80;99.90;;;;;;5020920;28;20060;-69
2022/10/20 07:56:36;;;;;;;22.43;15.47;;;6.90;99.90;;;;;;5009196;28;20076;-69
2022/10/20 07:59:03;;;;;;;21.87;14.90;;;6.90;99.90;;;;;;5019063;28;21047;-69
2022/10/20 08:01:28;;;;;;;21.53;14.33;;;6.90;99.90;;;;;;5027781;28;20151;-69
2022/10/20 08:03:54;;;;;;;23.50;15.03;;;7.00;99.90;;;;;;5024418;28;20059;-69
2022/10/20 08:06:20;;;;;;;22.47;14.17;;;6.90;99.90;;;;;;5014871;28;20057;-70
2022/10/20 08:08:46;;;;;;;22.87;15.67;;;7.00;99.90;;;;;;5021187;28;20130;-70
2022/10/20 08:11:12;;;;;;;21.57;14.20;;;7.00;99.90;;;;;;5027473;28;20140;-70
2022/10/20 08:13:39;;;;;;;19.73;14.50;;;7.00;99.90;;;;;;5024109;28;20047;-69
2022/10/20 08:16:06;;;;;;;23.33;14.87;;;7.20;99.90;;;;;;5024589;28;20049;-69
2022/10/20 08:18:32;;;;;;;20.87;14.73;;;7.20;99.90;;;;;;5016298;28;20453;-69
2022/10/20 08:21:06;;;;;;;22.30;14.27;;;7.20;99.90;;;;;;5025779;28;20048;-69
2022/10/20 08:23:32;;;;;;;20.37;14.87;;;7.20;99.90;;;;;;5025902;28;20071;-70
2022/10/20 08:25:58;;;;;;;24.07;14.63;;;7.30;99.90;;;;;;5025430;28;20654;-69
2022/10/20 08:28:23;;;;;;;24.07;15.60;;;7.40;99.90;;;;;;5009744;28;20053;-70
2022/10/20 08:30:49;;;;;;;22.90;15.67;;;7.40;99.90;;;;;;5026003;28;20059;-69
2022/10/20 08:33:14;;;;;;;21.63;15.10;;;7.60;99.90;;;;;;5026142;28;20040;-71
2022/10/20 08:35:40;;;;;;;21.57;15.30;;;7.50;99.90;;;;;;5025820;28;20045;-69
2022/10/20 08:38:06;;;;;;;19.70;14.73;;;7.50;99.90;;;;;;5009589;28;20135;-69
2022/10/20 08:40:34;;;;;;;21.43;14.67;;;7.60;99.90;;;;;;5023993;28;20191;-69
2022/10/20 08:43:00;;;;;;;23.07;13.50;;;7.60;99.90;;;;;;5026885;28;20163;-70
2022/10/20 08:45:28;;;;;;;21.43;14.07;;;7.70;99.90;;;;;;5027066;28;20057;-70
2022/10/20 08:47:57;;;;;;;20.60;13.97;;;7.70;99.90;;;;;;5024082;28;20045;-69
2022/10/20 08:50:26;;;;;;;22.40;14.47;;;7.70;99.90;;;;;;5024034;28;20056;-70
2022/10/20 08:52:56;;;;;;;17.73;13.73;;;7.80;99.90;;;;;;5022029;28;20721;-69
2022/10/20 08:55:27;;;;;;;20.03;13.53;;;7.90;99.90;;;;;;5023441;28;20462;-70
2022/10/20 08:57:58;;;;;;;20.58;13.48;;;8.00;99.90;;;;;;5005237;28;20148;-70
2022/10/20 09:00:24;;;;;;;19.25;13.38;;;7.90;99.90;;;;;;5021970;28;20053;-69
2022/10/20 09:02:50;;;;;;;21.00;12.80;;;8.00;99.90;;;;;;5019230;28;20076;-69
2022/10/20 09:05:21;;;;;;;18.57;13.10;;;8.10;99.90;;;;;;5023036;28;20756;-70
2022/10/20 09:07:48;;;;;;;16.42;11.82;;;8.10;99.90;;;;;;4989438;28;20535;-70
2022/10/20 09:10:23;;;;;;;18.60;11.93;;;8.20;99.90;;;;;;5023018;28;20354;-70
2022/10/20 09:12:50;;;;;;;17.17;12.17;;;8.30;99.90;;;;;;5020482;28;20089;-70
2022/10/20 09:15:17;;;;;;;18.80;12.73;;;8.30;99.90;;;;;;5022627;28;20045;-69
2022/10/20 09:17:48;;;;;;;21.33;13.07;;;8.50;99.90;;;;;;5003052;28;20045;-70
2022/10/20 09:20:33;;;;;;;19.08;12.38;;;8.50;99.90;;;;;;5020754;28;20083;-70
2022/10/20 09:22:59;;;;;;;15.50;11.47;;;8.70;99.90;;;;;;5019644;28;20041;-70
2022/10/20 09:25:26;;;;;;;17.13;11.43;;;8.80;99.90;;;;;;5022792;28;20047;-70
2022/10/20 09:27:55;;;;;;;17.50;11.83;;;8.80;99.90;;;;;;5005399;28;20891;-69
2022/10/20 09:30:21;;;;;;;18.83;12.13;;;8.80;99.90;;;;;;5021189;28;20453;-70
2022/10/20 09:32:47;;;;;;;16.60;11.20;;;8.90;99.90;;;;;;5003851;28;21378;-69
2022/10/20 09:35:24;;;;;;;16.40;11.30;;;8.90;99.90;;;;;;5021822;28;20125;-70
2022/10/20 09:37:58;;;;;;;19.50;11.33;;;9.00;99.90;;;;;;5007831;28;20053;-70
2022/10/20 09:40:25;;;;;;;15.50;11.47;;;9.00;99.90;;;;;;5021568;28;20114;-70
2022/10/20 09:42:58;;;;;;;22.53;11.73;;;9.10;99.90;;;;;;5004854;28;20041;-70
2022/10/20 09:45:28;;;;;;;16.63;11.37;;;9.30;99.90;;;;;;5022022;28;20689;-70
2022/10/20 09:48:01;;;;;;;14.70;11.07;;;9.40;99.90;;;;;;5005641;28;20052;-70
2022/10/20 09:50:37;;;;;;;19.50;11.17;;;9.40;99.90;;;;;;5022625;28;20911;-70
2022/10/20 09:53:14;;;;;;;16.47;10.77;;;9.40;99.90;;;;;;5022226;28;20045;-69
2022/10/20 09:55:46;;;;;;;15.73;10.87;;;9.50;99.90;;;;;;5023299;28;20103;-69
2022/10/20 09:58:27;;;;;;;17.07;12.10;;;9.60;99.90;;;;;;5004707;28;20045;-70
2022/10/20 10:01:05;;;;;;;14.02;11.18;;;9.60;99.90;;;;;;5016419;28;20057;-70
2022/10/20 10:03:45;;;;;;;16.33;11.10;;;9.60;99.90;;;;;;4999912;28;20304;-70
2022/10/20 10:06:28;;;;;;;20.67;11.60;;;9.60;99.90;;;;;;4978701;28;20061;-70
2022/10/20 10:08:56;;;;;;;13.10;10.53;;;9.70;99.90;;;;;;4990016;28;20049;-70
2022/10/20 10:11:33;;;;;;;14.33;10.00;;;9.80;99.90;;;;;;5016387;28;20037;-70
2022/10/20 10:14:00;;;;;;;15.57;10.20;;;9.70;99.90;;;;;;5018058;28;20157;-70
2022/10/20 10:16:26;;;;;;;19.60;10.30;;;9.80;99.90;;;;;;5008168;28;20488;-69
2022/10/20 10:19:01;;;;;;;15.33;10.27;;;9.90;99.90;;;;;;5000870;28;20182;-70
2022/10/20 10:21:29;;;;;;;14.67;9.60;;;10.00;99.90;;;;;;5021586;28;20052;-70
2022/10/20 10:24:03;;;;;;;14.93;9.53;;;10.00;99.90;;;;;;5020300;28;20120;-69
2022/10/20 10:26:52;;;;;;;13.00;9.50;;;10.00;99.90;;;;;;5009640;28;20053;-70
2022/10/20 10:29:18;;;;;;;14.80;8.87;;;10.00;99.90;;;;;;5021257;28;20041;-70
2022/10/20 10:31:57;;;;;;;13.57;10.03;;;10.20;99.90;;;;;;5020433;28;20060;-70
2022/10/20 10:34:37;;;;;;;11.93;8.47;;;10.40;99.90;;;;;;5017592;28;20501;-70
2022/10/20 10:37:03;;;;;;;11.10;8.05;;;10.50;99.90;;;;;;5000753;28;20458;-70
2022/10/20 10:39:34;;;;;;;15.37;10.03;;;10.50;99.90;;;;;;5016316;28;20056;-70
2022/10/20 10:42:05;;;;;;;10.55;9.40;;;10.60;99.90;;;;;;5015783;28;20484;-70
2022/10/20 10:44:31;;;;;;;;;;;10.80;99.90;;;;;;5000674;28;20060;-70
2022/10/20 10:47:17;;;;;;;11.98;9.05;;;10.90;99.90;;;;;;5003133;28;19928;-70
2022/10/20 10:49:56;;;;;;;12.02;8.23;;;11.10;99.90;;;;;;5000141;28;20044;-70
2022/10/20 10:52:43;;;;;;;11.77;9.10;;;11.10;99.90;;;;;;5019469;28;20080;-70
2022/10/20 10:55:26;;;;;;;13.50;9.30;;;11.20;99.90;;;;;;5016983;28;20084;-70
2022/10/20 10:58:23;;;;;;;15.57;8.38;;;11.30;99.90;;;;;;5001183;28;20048;-71
2022/10/20 11:01:00;;;;;;;12.90;8.63;;;11.20;99.90;;;;;;5019449;28;20068;-70
2022/10/20 11:03:44;;;;;;;13.73;8.55;;;11.30;99.90;;;;;;5018721;28;20056;-70
2022/10/20 11:06:20;;;;;;;11.32;8.52;;;11.40;99.90;;;;;;5012327;28;20134;-70
2022/10/20 11:09:13;;;;;;;13.25;8.55;;;11.50;99.90;;;;;;5015789;28;20053;-70
2022/10/20 11:11:44;;;;;;;13.90;8.32;;;11.50;99.90;;;;;;5021601;28;20507;-70
2022/10/20 11:14:13;;;;;;;10.35;8.35;;;11.50;99.90;;;;;;5008587;28;20053;-70
2022/10/20 11:17:07;;;;;;;13.30;8.50;;;11.50;99.90;;;;;;4986470;28;20040;-69
2022/10/20 11:19:51;;;;;;;12.82;8.25;;;11.50;99.90;;;;;;5016481;28;20852;-70
2022/10/20 11:22:42;;;;;;;12.05;8.35;;;11.50;99.90;;;;;;5010683;28;20063;-70
2022/10/20 11:25:39;;;;;;;15.77;8.77;;;11.50;99.90;;;;;;5008786;28;20056;-70
2022/10/20 11:28:28;;;;;;;12.18;7.90;;;11.60;99.90;;;;;;5003903;28;20571;-70
2022/10/20 11:30:58;;;;;;;12.48;8.15;;;11.60;99.90;;;;;;5018823;28;20132;-70
2022/10/20 11:33:31;;;;;;;10.70;7.82;;;11.70;99.90;;;;;;5018181;28;20436;-70
2022/10/20 11:36:07;;;;;;;10.93;8.55;;;11.80;99.90;;;;;;5000984;28;20094;-70
2022/10/20 11:38:48;;;;;;;10.38;8.40;;;11.80;99.90;;;;;;5008693;28;20041;-70
2022/10/20 11:41:39;;;;;;;11.70;8.40;;;11.70;99.90;;;;;;5019950;28;20052;-70
2022/10/20 11:44:24;;;;;;;11.45;8.82;;;11.80;99.90;;;;;;5017685;28;20331;-70
2022/10/20 11:47:35;;;;;;;13.50;8.38;;;11.80;99.90;;;;;;5003854;28;20057;-70
2022/10/20 11:50:06;;;;;;;11.50;8.03;;;11.70;99.90;;;;;;4937749;28;20114;-70
2022/10/20 11:52:35;;;;;;;12.63;8.15;;;11.70;99.90;;;;;;4923499;28;20293;-70
2022/10/20 11:55:42;;;;;;;12.45;8.40;;;11.80;99.90;;;;;;4985376;28;20126;-69
2022/10/20 11:58:28;;;;;;;10.95;8.48;;;11.80;99.90;;;;;;5002765;28;20052;-70
2022/10/20 12:01:15;;;;;;;12.80;8.52;;;11.80;99.90;;;;;;5020714;28;20151;-70
2022/10/20 12:04:14;;;;;;;15.02;8.57;;;11.80;99.90;;;;;;5020064;28;20053;-71
2022/10/20 12:07:00;;;;;;;13.40;8.63;;;11.80;99.90;;;;;;5006091;28;20068;-70
2022/10/20 12:09:55;;;;;;;12.27;8.70;;;11.90;99.90;;;;;;5019700;28;20045;-70
2022/10/20 12:12:33;;;;;;;10.85;8.93;;;11.90;99.90;;;;;;5020387;28;20060;-70
2022/10/20 12:15:01;;;;;;;11.60;8.82;;;11.90;99.90;;;;;;5020231;28;20404;-70
2022/10/20 12:17:29;;;;;;;11.93;8.35;;;11.90;99.90;;;;;;5002684;28;20044;-70
2022/10/20 12:20:19;;;;;;;14.05;8.95;;;11.90;99.90;;;;;;5019583;28;20541;-70
2022/10/20 12:23:01;;;;;;;14.73;9.57;;;12.00;99.90;;;;;;5020431;28;20812;-70
2022/10/20 12:25:26;;;;;;;10.55;8.48;;;11.90;99.90;;;;;;5018496;28;20053;-70
2022/10/20 12:28:21;;;;;;;12.30;9.18;;;11.90;99.90;;;;;;5003024;28;20048;-70
2022/10/20 12:31:02;;;;;;;12.32;8.65;;;11.90;99.90;;;;;;5020016;28;20088;-71
2022/10/20 12:33:58;;;;;;;10.40;8.05;;;11.90;99.90;;;;;;5016607;28;20044;-70
2022/10/20 12:36:38;;;;;;;14.48;8.68;;;11.90;99.90;;;;;;4971449;28;20402;-70
2022/10/20 12:39:15;;;;;;;14.55;8.43;;;11.90;99.90;;;;;;5017653;28;20049;-70
2022/10/20 12:42:02;;;;;;;10.60;8.25;;;11.90;99.90;;;;;;5019044;28;20053;-70
2022/10/20 12:44:39;;;;;;;10.52;8.52;;;11.90;99.90;;;;;;5018494;28;20067;-70
2022/10/20 12:47:06;;;;;;;12.75;9.35;;;11.80;99.90;;;;;;4968314;28;20763;-70
2022/10/20 12:49:36;;;;;;;13.30;9.23;;;11.80;99.90;;;;;;5022979;28;20048;-70
2022/10/20 12:52:03;;;;;;;14.65;9.38;;;11.80;99.90;;;;;;5023626;28;20126;-70
2022/10/20 12:54:39;;;;;;;14.15;9.32;;;11.80;99.90;;;;;;5021142;28;20594;-70
2022/10/20 12:57:29;;;;;;;15.48;8.82;;;11.70;99.90;;;;;;5004888;28;20049;-70
2022/10/20 12:59:54;;;;;;;11.18;9.65;;;11.70;99.90;;;;;;5023731;28;21748;-70